sensor_id;sensor_type;location;lat;lon;timestamp;P1;durP1;ratioP1;P2;durP2;ratioP2
34765;SDS011;20984;43.508;1.504;2022-09-20T00:01:13;5.78;;;2.92;;
34765;SDS011;20984;43.508;1.504;2022-09-20T00:03:42;4.72;;;2.70;;
34765;SDS011;20984;43.508;1.504;2022-09-20T00:06:11;6.82;;;2.78;;
34765;SDS011;20984;43.508;1.504;2022-09-20T00:08:38;3.42;;;2.65;;
34765;SDS011;20984;43.508;1.504;2022-09-20T00:11:06;4.80;;;2.58;;
34765;SDS011;20984;43.508;1.504;2022-09-20T00:13:34;6.55;;;2.80;;
34765;SDS011;20984;43.508;1.504;2022-09-20T00:16:05;3.58;;;2.80;;
34765;SDS011;20984;43.508;1.504;2022-09-20T00:18:32;3.47;;;2.65;;
34765;SDS011;20984;43.508;1.504;2022-09-20T00:20:59;4.93;;;2.70;;
34765;SDS011;20984;43.508;1.504;2022-09-20T00:23:24;3.45;;;2.63;;
34765;SDS011;20984;43.508;1.504;2022-09-20T00:25:57;4.18;;;2.80;;
34765;SDS011;20984;43.508;1.504;2022-09-20T00:28:27;7.60;;;3.35;;
34765;SDS011;20984;43.508;1.504;2022-09-20T00:30:54;6.75;;;3.17;;
34765;SDS011;20984;43.508;1.504;2022-09-20T00:33:21;5.60;;;3.35;;
34765;SDS011;20984;43.508;1.504;2022-09-20T00:35:48;15.38;;;4.45;;
34765;SDS011;20984;43.508;1.504;2022-09-20T00:38:14;7.05;;;2.90;;
34765;SDS011;20984;43.508;1.504;2022-09-20T00:40:41;6.50;;;3.28;;
34765;SDS011;20984;43.508;1.504;2022-09-20T00:43:14;3.22;;;2.72;;
34765;SDS011;20984;43.508;1.504;2022-09-20T00:45:42;3.72;;;2.90;;
34765;SDS011;20984;43.508;1.504;2022-09-20T00:48:13;4.38;;;2.95;;
34765;SDS011;20984;43.508;1.504;2022-09-20T00:50:48;6.35;;;2.90;;
34765;SDS011;20984;43.508;1.504;2022-09-20T00:53:21;5.43;;;3.13;;
34765;SDS011;20984;43.508;1.504;2022-09-20T00:58:35;10.15;;;2.95;;
34765;SDS011;20984;43.508;1.504;2022-09-20T01:01:10;6.05;;;3.05;;
34765;SDS011;20984;43.508;1.504;2022-09-20T01:03:37;8.50;;;3.63;;
34765;SDS011;20984;43.508;1.504;2022-09-20T01:06:07;8.82;;;2.80;;
34765;SDS011;20984;43.508;1.504;2022-09-20T01:08:37;6.78;;;2.70;;
34765;SDS011;20984;43.508;1.504;2022-09-20T01:11:06;4.10;;;2.70;;
34765;SDS011;20984;43.508;1.504;2022-09-20T01:13:32;7.82;;;3.30;;
34765;SDS011;20984;43.508;1.504;2022-09-20T01:15:57;8.80;;;3.60;;
34765;SDS011;20984;43.508;1.504;2022-09-20T01:18:26;3.20;;;2.53;;
34765;SDS011;20984;43.508;1.504;2022-09-20T01:20:53;5.15;;;3.35;;
34765;SDS011;20984;43.508;1.504;2022-09-20T01:23:26;5.65;;;3.20;;
34765;SDS011;20984;43.508;1.504;2022-09-20T01:28:48;7.72;;;3.03;;
34765;SDS011;20984;43.508;1.504;2022-09-20T01:31:24;6.07;;;3.63;;
34765;SDS011;20984;43.508;1.504;2022-09-20T01:36:30;4.70;;;2.90;;
34765;SDS011;20984;43.508;1.504;2022-09-20T01:39:11;4.03;;;2.80;;
34765;SDS011;20984;43.508;1.504;2022-09-20T01:41:52;11.65;;;3.15;;
34765;SDS011;20984;43.508;1.504;2022-09-20T01:44:37;4.75;;;2.92;;
34765;SDS011;20984;43.508;1.504;2022-09-20T01:55:51;5.63;;;2.85;;
34765;SDS011;20984;43.508;1.504;2022-09-20T02:06:55;7.22;;;2.95;;
34765;SDS011;20984;43.508;1.504;2022-09-20T02:09:48;6.80;;;3.53;;
34765;SDS011;20984;43.508;1.504;2022-09-20T02:27:06;7.20;;;3.00;;
34765;SDS011;20984;43.508;1.504;2022-09-20T02:30:08;4.35;;;3.30;;
34765;SDS011;20984;43.508;1.504;2022-09-20T02:41:17;4.07;;;3.42;;
34765;SDS011;20984;43.508;1.504;2022-09-20T02:44:12;6.15;;;3.00;;
34765;SDS011;20984;43.508;1.504;2022-09-20T02:55:15;11.40;;;4.30;;
34765;SDS011;20984;43.508;1.504;2022-09-20T02:58:14;5.18;;;2.70;;
34765;SDS011;20984;43.508;1.504;2022-09-20T03:09:37;6.00;;;3.25;;
34765;SDS011;20984;43.508;1.504;2022-09-20T03:12:25;3.42;;;2.90;;
34765;SDS011;20984;43.508;1.504;2022-09-20T03:16:00;5.28;;;2.80;;
34765;SDS011;20984;43.508;1.504;2022-09-20T03:18:18;3.88;;;2.95;;
34765;SDS011;20984;43.508;1.504;2022-09-20T03:24:05;8.30;;;3.70;;
34765;SDS011;20984;43.508;1.504;2022-09-20T03:42:59;10.30;;;3.58;;
34765;SDS011;20984;43.508;1.504;2022-09-20T03:56:23;7.47;;;4.18;;
34765;SDS011;20984;43.508;1.504;2022-09-20T04:04:45;11.65;;;4.07;;
34765;SDS011;20984;43.508;1.504;2022-09-20T04:17:53;4.55;;;3.53;;
34765;SDS011;20984;43.508;1.504;2022-09-20T04:20:42;3.80;;;3.25;;
34765;SDS011;20984;43.508;1.504;2022-09-20T04:26:03;7.15;;;3.88;;
34765;SDS011;20984;43.508;1.504;2022-09-20T04:28:33;6.13;;;3.28;;
34765;SDS011;20984;43.508;1.504;2022-09-20T04:31:32;7.60;;;3.75;;
34765;SDS011;20984;43.508;1.504;2022-09-20T04:34:21;7.25;;;4.78;;
34765;SDS011;20984;43.508;1.504;2022-09-20T04:37:21;4.72;;;3.05;;
34765;SDS011;20984;43.508;1.504;2022-09-20T04:40:08;13.45;;;5.47;;
34765;SDS011;20984;43.508;1.504;2022-09-20T04:48:35;4.50;;;3.60;;
34765;SDS011;20984;43.508;1.504;2022-09-20T05:00:07;7.93;;;3.55;;
34765;SDS011;20984;43.508;1.504;2022-09-20T05:02:44;5.25;;;3.88;;
34765;SDS011;20984;43.508;1.504;2022-09-20T05:30:53;5.63;;;3.60;;
34765;SDS011;20984;43.508;1.504;2022-09-20T05:39:30;4.10;;;3.63;;
34765;SDS011;20984;43.508;1.504;2022-09-20T05:42:19;5.75;;;3.38;;
34765;SDS011;20984;43.508;1.504;2022-09-20T05:47:56;4.93;;;3.65;;
34765;SDS011;20984;43.508;1.504;2022-09-20T05:53:34;5.32;;;3.95;;
34765;SDS011;20984;43.508;1.504;2022-09-20T06:08:45;4.45;;;3.50;;
34765;SDS011;20984;43.508;1.504;2022-09-20T06:22:33;6.25;;;4.60;;
34765;SDS011;20984;43.508;1.504;2022-09-20T06:27:34;8.20;;;5.05;;
34765;SDS011;20984;43.508;1.504;2022-09-20T06:30:06;17.75;;;5.20;;
34765;SDS011;20984;43.508;1.504;2022-09-20T06:32:53;12.07;;;4.65;;
34765;SDS011;20984;43.508;1.504;2022-09-20T06:35:20;11.83;;;5.27;;
34765;SDS011;20984;43.508;1.504;2022-09-20T06:37:52;10.75;;;4.38;;
34765;SDS011;20984;43.508;1.504;2022-09-20T06:40:43;14.20;;;4.50;;
34765;SDS011;20984;43.508;1.504;2022-09-20T06:43:36;6.03;;;4.45;;
34765;SDS011;20984;43.508;1.504;2022-09-20T06:46:04;9.23;;;5.32;;
34765;SDS011;20984;43.508;1.504;2022-09-20T06:48:31;12.30;;;4.97;;
34765;SDS011;20984;43.508;1.504;2022-09-20T06:50:56;16.52;;;4.30;;
34765;SDS011;20984;43.508;1.504;2022-09-20T06:53:25;5.65;;;4.25;;
34765;SDS011;20984;43.508;1.504;2022-09-20T06:55:56;8.50;;;4.35;;
34765;SDS011;20984;43.508;1.504;2022-09-20T06:58:23;10.38;;;4.07;;
34765;SDS011;20984;43.508;1.504;2022-09-20T07:00:50;10.02;;;4.70;;
34765;SDS011;20984;43.508;1.504;2022-09-20T07:03:17;9.40;;;5.28;;
34765;SDS011;20984;43.508;1.504;2022-09-20T07:05:44;11.25;;;4.55;;
34765;SDS011;20984;43.508;1.504;2022-09-20T07:08:10;4.75;;;3.63;;
34765;SDS011;20984;43.508;1.504;2022-09-20T07:10:36;5.68;;;3.72;;
34765;SDS011;20984;43.508;1.504;2022-09-20T07:13:03;6.50;;;3.63;;
34765;SDS011;20984;43.508;1.504;2022-09-20T07:15:30;6.95;;;3.70;;
34765;SDS011;20984;43.508;1.504;2022-09-20T07:17:57;11.85;;;4.00;;
34765;SDS011;20984;43.508;1.504;2022-09-20T07:20:24;7.40;;;4.03;;
34765;SDS011;20984;43.508;1.504;2022-09-20T07:22:51;8.15;;;3.58;;
34765;SDS011;20984;43.508;1.504;2022-09-20T07:25:18;9.85;;;3.47;;
34765;SDS011;20984;43.508;1.504;2022-09-20T07:27:44;4.85;;;3.22;;
34765;SDS011;20984;43.508;1.504;2022-09-20T07:30:12;5.80;;;3.58;;
34765;SDS011;20984;43.508;1.504;2022-09-20T07:32:39;11.65;;;3.70;;
34765;SDS011;20984;43.508;1.504;2022-09-20T07:35:08;3.60;;;2.80;;
34765;SDS011;20984;43.508;1.504;2022-09-20T07:37:35;6.43;;;3.35;;
34765;SDS011;20984;43.508;1.504;2022-09-20T07:40:02;4.07;;;2.55;;
34765;SDS011;20984;43.508;1.504;2022-09-20T07:42:29;7.00;;;3.00;;
34765;SDS011;20984;43.508;1.504;2022-09-20T07:44:56;7.40;;;3.10;;
34765;SDS011;20984;43.508;1.504;2022-09-20T07:47:21;7.95;;;3.22;;
34765;SDS011;20984;43.508;1.504;2022-09-20T07:49:49;5.30;;;3.10;;
34765;SDS011;20984;43.508;1.504;2022-09-20T07:52:17;6.15;;;3.30;;
34765;SDS011;20984;43.508;1.504;2022-09-20T07:54:43;8.93;;;3.58;;
34765;SDS011;20984;43.508;1.504;2022-09-20T07:57:10;5.05;;;3.13;;
34765;SDS011;20984;43.508;1.504;2022-09-20T07:59:36;10.98;;;3.53;;
34765;SDS011;20984;43.508;1.504;2022-09-20T08:02:02;12.32;;;4.10;;
34765;SDS011;20984;43.508;1.504;2022-09-20T08:04:28;8.80;;;3.95;;
34765;SDS011;20984;43.508;1.504;2022-09-20T08:06:54;12.57;;;3.17;;
34765;SDS011;20984;43.508;1.504;2022-09-20T08:09:21;8.63;;;3.78;;
34765;SDS011;20984;43.508;1.504;2022-09-20T08:11:46;9.57;;;2.92;;
34765;SDS011;20984;43.508;1.504;2022-09-20T08:14:14;11.85;;;3.00;;
34765;SDS011;20984;43.508;1.504;2022-09-20T08:16:42;11.75;;;3.42;;
34765;SDS011;20984;43.508;1.504;2022-09-20T08:21:41;7.75;;;3.47;;
34765;SDS011;20984;43.508;1.504;2022-09-20T08:24:08;6.60;;;3.47;;
34765;SDS011;20984;43.508;1.504;2022-09-20T08:26:35;8.20;;;3.55;;
34765;SDS011;20984;43.508;1.504;2022-09-20T08:29:01;9.35;;;3.75;;
34765;SDS011;20984;43.508;1.504;2022-09-20T08:31:29;11.60;;;3.30;;
34765;SDS011;20984;43.508;1.504;2022-09-20T08:33:58;14.00;;;3.70;;
34765;SDS011;20984;43.508;1.504;2022-09-20T08:36:28;7.40;;;2.78;;
34765;SDS011;20984;43.508;1.504;2022-09-20T08:38:55;8.00;;;2.97;;
34765;SDS011;20984;43.508;1.504;2022-09-20T08:41:34;14.05;;;3.65;;
34765;SDS011;20984;43.508;1.504;2022-09-20T08:49:30;8.07;;;2.95;;
34765;SDS011;20984;43.508;1.504;2022-09-20T08:51:56;7.18;;;3.28;;
34765;SDS011;20984;43.508;1.504;2022-09-20T08:54:24;11.95;;;3.45;;
34765;SDS011;20984;43.508;1.504;2022-09-20T08:56:51;12.30;;;2.88;;
34765;SDS011;20984;43.508;1.504;2022-09-20T08:59:17;15.32;;;3.55;;
34765;SDS011;20984;43.508;1.504;2022-09-20T09:01:47;9.27;;;2.53;;
34765;SDS011;20984;43.508;1.504;2022-09-20T09:04:16;6.80;;;2.20;;
34765;SDS011;20984;43.508;1.504;2022-09-20T09:06:44;5.25;;;2.75;;
34765;SDS011;20984;43.508;1.504;2022-09-20T09:09:17;7.82;;;2.80;;
34765;SDS011;20984;43.508;1.504;2022-09-20T09:11:50;8.60;;;3.25;;
34765;SDS011;20984;43.508;1.504;2022-09-20T09:14:27;7.45;;;2.38;;
34765;SDS011;20984;43.508;1.504;2022-09-20T09:17:20;8.30;;;2.63;;
34765;SDS011;20984;43.508;1.504;2022-09-20T09:19:50;8.73;;;3.00;;
34765;SDS011;20984;43.508;1.504;2022-09-20T09:25:23;5.70;;;2.58;;
34765;SDS011;20984;43.508;1.504;2022-09-20T09:27:54;6.45;;;2.63;;
34765;SDS011;20984;43.508;1.504;2022-09-20T09:30:24;5.47;;;2.65;;
34765;SDS011;20984;43.508;1.504;2022-09-20T09:35:53;3.63;;;2.90;;
34765;SDS011;20984;43.508;1.504;2022-09-20T09:38:29;4.45;;;2.78;;
34765;SDS011;20984;43.508;1.504;2022-09-20T09:41:09;11.65;;;2.90;;
34765;SDS011;20984;43.508;1.504;2022-09-20T09:44:04;16.08;;;3.10;;
34765;SDS011;20984;43.508;1.504;2022-09-20T09:46:52;7.85;;;2.47;;
34765;SDS011;20984;43.508;1.504;2022-09-20T09:49:19;8.45;;;2.55;;
34765;SDS011;20984;43.508;1.504;2022-09-20T09:52:08;27.00;;;3.13;;
34765;SDS011;20984;43.508;1.504;2022-09-20T10:00:14;6.32;;;2.90;;
34765;SDS011;20984;43.508;1.504;2022-09-20T10:21:24;4.28;;;2.55;;
34765;SDS011;20984;43.508;1.504;2022-09-20T10:49:39;2.30;;;1.80;;
34765;SDS011;20984;43.508;1.504;2022-09-20T11:06:38;9.93;;;2.22;;
34765;SDS011;20984;43.508;1.504;2022-09-20T11:09:19;4.32;;;2.17;;
34765;SDS011;20984;43.508;1.504;2022-09-20T11:12:05;5.72;;;2.22;;
34765;SDS011;20984;43.508;1.504;2022-09-20T11:14:44;3.20;;;1.90;;
34765;SDS011;20984;43.508;1.504;2022-09-20T11:17:28;2.70;;;1.73;;
34765;SDS011;20984;43.508;1.504;2022-09-20T11:23:05;3.70;;;1.60;;
34765;SDS011;20984;43.508;1.504;2022-09-20T11:26:06;4.53;;;1.70;;
34765;SDS011;20984;43.508;1.504;2022-09-20T11:28:41;2.58;;;1.38;;
34765;SDS011;20984;43.508;1.504;2022-09-20T11:31:15;2.15;;;1.58;;
34765;SDS011;20984;43.508;1.504;2022-09-20T11:33:47;6.38;;;1.90;;
34765;SDS011;20984;43.508;1.504;2022-09-20T11:38:58;7.30;;;1.60;;
34765;SDS011;20984;43.508;1.504;2022-09-20T11:41:29;3.78;;;1.52;;
34765;SDS011;20984;43.508;1.504;2022-09-20T11:44:06;6.30;;;1.83;;
34765;SDS011;20984;43.508;1.504;2022-09-20T11:46:39;2.40;;;1.70;;
34765;SDS011;20984;43.508;1.504;2022-09-20T11:49:24;2.78;;;1.48;;
34765;SDS011;20984;43.508;1.504;2022-09-20T11:57:14;4.45;;;2.30;;
34765;SDS011;20984;43.508;1.504;2022-09-20T11:59:41;4.60;;;2.13;;
34765;SDS011;20984;43.508;1.504;2022-09-20T12:02:49;3.03;;;1.90;;
34765;SDS011;20984;43.508;1.504;2022-09-20T12:08:00;3.28;;;1.50;;
34765;SDS011;20984;43.508;1.504;2022-09-20T12:10:33;3.85;;;1.83;;
34765;SDS011;20984;43.508;1.504;2022-09-20T12:13:06;3.97;;;1.50;;
34765;SDS011;20984;43.508;1.504;2022-09-20T12:15:43;8.95;;;1.60;;
34765;SDS011;20984;43.508;1.504;2022-09-20T12:18:27;3.50;;;1.50;;
34765;SDS011;20984;43.508;1.504;2022-09-20T12:21:04;10.00;;;1.98;;
34765;SDS011;20984;43.508;1.504;2022-09-20T12:26:06;6.85;;;1.80;;
34765;SDS011;20984;43.508;1.504;2022-09-20T12:47:20;7.13;;;1.70;;
34765;SDS011;20984;43.508;1.504;2022-09-20T12:49:50;2.25;;;1.30;;
34765;SDS011;20984;43.508;1.504;2022-09-20T12:52:37;1.88;;;1.15;;
34765;SDS011;20984;43.508;1.504;2022-09-20T12:57:58;2.67;;;1.27;;
34765;SDS011;20984;43.508;1.504;2022-09-20T13:03:10;2.30;;;1.48;;
34765;SDS011;20984;43.508;1.504;2022-09-20T13:05:41;3.33;;;1.10;;
34765;SDS011;20984;43.508;1.504;2022-09-20T13:10:59;1.95;;;1.27;;
34765;SDS011;20984;43.508;1.504;2022-09-20T13:19:42;1.80;;;1.15;;
34765;SDS011;20984;43.508;1.504;2022-09-20T13:22:28;2.42;;;1.10;;
34765;SDS011;20984;43.508;1.504;2022-09-20T13:24:59;6.97;;;1.70;;
34765;SDS011;20984;43.508;1.504;2022-09-20T13:27:39;2.07;;;1.10;;
34765;SDS011;20984;43.508;1.504;2022-09-20T13:30:26;1.98;;;1.20;;
34765;SDS011;20984;43.508;1.504;2022-09-20T13:33:23;2.90;;;1.20;;
34765;SDS011;20984;43.508;1.504;2022-09-20T13:35:51;3.03;;;1.00;;
34765;SDS011;20984;43.508;1.504;2022-09-20T13:38:21;2.03;;;1.17;;
34765;SDS011;20984;43.508;1.504;2022-09-20T13:40:50;8.35;;;1.45;;
34765;SDS011;20984;43.508;1.504;2022-09-20T13:43:41;2.72;;;1.15;;
34765;SDS011;20984;43.508;1.504;2022-09-20T13:46:14;7.90;;;1.52;;
34765;SDS011;20984;43.508;1.504;2022-09-20T13:48:41;7.10;;;1.30;;
34765;SDS011;20984;43.508;1.504;2022-09-20T13:51:18;2.47;;;1.30;;
34765;SDS011;20984;43.508;1.504;2022-09-20T13:53:47;3.70;;;1.33;;
34765;SDS011;20984;43.508;1.504;2022-09-20T13:56:18;1.95;;;1.20;;
34765;SDS011;20984;43.508;1.504;2022-09-20T13:58:47;1.58;;;1.02;;
34765;SDS011;20984;43.508;1.504;2022-09-20T14:01:27;2.25;;;1.40;;
34765;SDS011;20984;43.508;1.504;2022-09-20T14:03:56;7.70;;;1.85;;
34765;SDS011;20984;43.508;1.504;2022-09-20T14:06:29;1.55;;;1.20;;
34765;SDS011;20984;43.508;1.504;2022-09-20T14:08:56;4.05;;;1.02;;
34765;SDS011;20984;43.508;1.504;2022-09-20T14:11:27;3.42;;;1.42;;
34765;SDS011;20984;43.508;1.504;2022-09-20T14:14:02;3.47;;;1.08;;
34765;SDS011;20984;43.508;1.504;2022-09-20T14:16:33;1.77;;;1.02;;
34765;SDS011;20984;43.508;1.504;2022-09-20T14:19:03;3.97;;;1.05;;
34765;SDS011;20984;43.508;1.504;2022-09-20T14:21:34;3.33;;;0.90;;
34765;SDS011;20984;43.508;1.504;2022-09-20T14:24:04;8.55;;;1.35;;
34765;SDS011;20984;43.508;1.504;2022-09-20T14:26:33;3.33;;;1.08;;
34765;SDS011;20984;43.508;1.504;2022-09-20T14:31:52;4.05;;;1.17;;
34765;SDS011;20984;43.508;1.504;2022-09-20T14:34:19;4.22;;;1.00;;
34765;SDS011;20984;43.508;1.504;2022-09-20T14:36:46;1.15;;;0.85;;
34765;SDS011;20984;43.508;1.504;2022-09-20T14:39:14;1.73;;;1.17;;
34765;SDS011;20984;43.508;1.504;2022-09-20T14:41:43;5.00;;;1.30;;
34765;SDS011;20984;43.508;1.504;2022-09-20T14:46:58;6.07;;;1.00;;
34765;SDS011;20984;43.508;1.504;2022-09-20T14:49:39;7.57;;;1.37;;
34765;SDS011;20984;43.508;1.504;2022-09-20T14:55:15;1.60;;;0.93;;
34765;SDS011;20984;43.508;1.504;2022-09-20T14:57:44;2.60;;;1.30;;
34765;SDS011;20984;43.508;1.504;2022-09-20T15:00:12;3.42;;;1.13;;
34765;SDS011;20984;43.508;1.504;2022-09-20T15:02:43;5.07;;;1.27;;
34765;SDS011;20984;43.508;1.504;2022-09-20T15:05:20;1.38;;;1.00;;
34765;SDS011;20984;43.508;1.504;2022-09-20T15:07:51;2.30;;;1.40;;
34765;SDS011;20984;43.508;1.504;2022-09-20T15:10:18;2.08;;;0.88;;
34765;SDS011;20984;43.508;1.504;2022-09-20T15:12:44;7.90;;;1.75;;
34765;SDS011;20984;43.508;1.504;2022-09-20T15:15:11;5.95;;;1.10;;
34765;SDS011;20984;43.508;1.504;2022-09-20T15:17:41;2.58;;;1.15;;
34765;SDS011;20984;43.508;1.504;2022-09-20T15:20:11;3.63;;;1.02;;
34765;SDS011;20984;43.508;1.504;2022-09-20T15:22:43;4.10;;;0.90;;
34765;SDS011;20984;43.508;1.504;2022-09-20T15:25:12;5.85;;;1.10;;
34765;SDS011;20984;43.508;1.504;2022-09-20T15:27:40;5.60;;;1.33;;
34765;SDS011;20984;43.508;1.504;2022-09-20T15:30:08;3.50;;;1.00;;
34765;SDS011;20984;43.508;1.504;2022-09-20T15:32:36;5.57;;;1.52;;
34765;SDS011;20984;43.508;1.504;2022-09-20T15:35:02;1.50;;;0.93;;
34765;SDS011;20984;43.508;1.504;2022-09-20T15:37:28;4.80;;;1.00;;
34765;SDS011;20984;43.508;1.504;2022-09-20T15:39:54;2.08;;;1.13;;
34765;SDS011;20984;43.508;1.504;2022-09-20T15:42:20;3.83;;;0.85;;
34765;SDS011;20984;43.508;1.504;2022-09-20T15:44:48;1.42;;;0.70;;
34765;SDS011;20984;43.508;1.504;2022-09-20T15:47:17;2.22;;;1.20;;
34765;SDS011;20984;43.508;1.504;2022-09-20T15:49:47;3.45;;;0.80;;
34765;SDS011;20984;43.508;1.504;2022-09-20T15:52:14;4.88;;;0.80;;
34765;SDS011;20984;43.508;1.504;2022-09-20T15:54:40;1.52;;;0.82;;
34765;SDS011;20984;43.508;1.504;2022-09-20T15:57:07;1.98;;;0.90;;
34765;SDS011;20984;43.508;1.504;2022-09-20T15:59:33;1.67;;;0.90;;
34765;SDS011;20984;43.508;1.504;2022-09-20T16:01:59;2.70;;;0.98;;
34765;SDS011;20984;43.508;1.504;2022-09-20T16:04:25;1.45;;;0.95;;
34765;SDS011;20984;43.508;1.504;2022-09-20T16:06:51;3.72;;;0.93;;
34765;SDS011;20984;43.508;1.504;2022-09-20T16:09:18;2.35;;;0.70;;
34765;SDS011;20984;43.508;1.504;2022-09-20T16:11:45;6.43;;;1.20;;
34765;SDS011;20984;43.508;1.504;2022-09-20T16:14:11;2.10;;;0.80;;
34765;SDS011;20984;43.508;1.504;2022-09-20T16:16:37;1.67;;;0.70;;
34765;SDS011;20984;43.508;1.504;2022-09-20T16:19:03;1.80;;;0.90;;
34765;SDS011;20984;43.508;1.504;2022-09-20T16:21:41;7.28;;;1.40;;
34765;SDS011;20984;43.508;1.504;2022-09-20T16:24:09;1.30;;;0.70;;
34765;SDS011;20984;43.508;1.504;2022-09-20T16:26:36;0.95;;;0.80;;
34765;SDS011;20984;43.508;1.504;2022-09-20T16:29:03;1.42;;;0.80;;
34765;SDS011;20984;43.508;1.504;2022-09-20T16:31:34;1.52;;;0.95;;
34765;SDS011;20984;43.508;1.504;2022-09-20T16:34:06;3.05;;;0.93;;
34765;SDS011;20984;43.508;1.504;2022-09-20T16:36:41;2.78;;;1.00;;
34765;SDS011;20984;43.508;1.504;2022-09-20T16:39:08;3.20;;;1.10;;
34765;SDS011;20984;43.508;1.504;2022-09-20T16:41:34;3.25;;;1.00;;
34765;SDS011;20984;43.508;1.504;2022-09-20T16:44:00;5.22;;;1.40;;
34765;SDS011;20984;43.508;1.504;2022-09-20T16:46:27;1.73;;;1.00;;
34765;SDS011;20984;43.508;1.504;2022-09-20T16:48:54;1.92;;;1.00;;
34765;SDS011;20984;43.508;1.504;2022-09-20T16:51:23;3.45;;;1.00;;
34765;SDS011;20984;43.508;1.504;2022-09-20T16:53:53;1.38;;;1.05;;
34765;SDS011;20984;43.508;1.504;2022-09-20T16:56:23;4.22;;;1.08;;
34765;SDS011;20984;43.508;1.504;2022-09-20T16:58:50;2.50;;;1.10;;
34765;SDS011;20984;43.508;1.504;2022-09-20T17:01:17;2.15;;;1.00;;
34765;SDS011;20984;43.508;1.504;2022-09-20T17:03:43;1.98;;;1.00;;
34765;SDS011;20984;43.508;1.504;2022-09-20T17:06:11;3.63;;;1.15;;
34765;SDS011;20984;43.508;1.504;2022-09-20T17:08:39;4.63;;;1.42;;
34765;SDS011;20984;43.508;1.504;2022-09-20T17:13:33;2.10;;;1.17;;
34765;SDS011;20984;43.508;1.504;2022-09-20T17:16:00;6.65;;;1.50;;
34765;SDS011;20984;43.508;1.504;2022-09-20T17:18:27;1.77;;;1.08;;
34765;SDS011;20984;43.508;1.504;2022-09-20T17:20:53;8.20;;;1.70;;
34765;SDS011;20984;43.508;1.504;2022-09-20T17:23:19;1.83;;;1.00;;
34765;SDS011;20984;43.508;1.504;2022-09-20T17:25:45;4.57;;;1.40;;
34765;SDS011;20984;43.508;1.504;2022-09-20T17:28:12;1.67;;;1.10;;
34765;SDS011;20984;43.508;1.504;2022-09-20T17:30:38;2.15;;;1.38;;
34765;SDS011;20984;43.508;1.504;2022-09-20T17:33:07;2.30;;;1.33;;
34765;SDS011;20984;43.508;1.504;2022-09-20T17:35:33;3.92;;;1.65;;
34765;SDS011;20984;43.508;1.504;2022-09-20T17:37:59;2.55;;;1.70;;
34765;SDS011;20984;43.508;1.504;2022-09-20T17:40:24;3.50;;;1.20;;
34765;SDS011;20984;43.508;1.504;2022-09-20T17:42:50;5.88;;;1.42;;
34765;SDS011;20984;43.508;1.504;2022-09-20T17:45:16;2.53;;;1.20;;
34765;SDS011;20984;43.508;1.504;2022-09-20T17:47:42;3.53;;;1.08;;
34765;SDS011;20984;43.508;1.504;2022-09-20T17:50:08;2.08;;;1.25;;
34765;SDS011;20984;43.508;1.504;2022-09-20T17:52:39;2.97;;;1.33;;
34765;SDS011;20984;43.508;1.504;2022-09-20T17:55:06;1.95;;;1.27;;
34765;SDS011;20984;43.508;1.504;2022-09-20T17:57:32;2.25;;;1.10;;
34765;SDS011;20984;43.508;1.504;2022-09-20T17:59:58;2.92;;;1.35;;
34765;SDS011;20984;43.508;1.504;2022-09-20T18:02:23;2.75;;;1.17;;
34765;SDS011;20984;43.508;1.504;2022-09-20T18:04:49;1.85;;;1.40;;
34765;SDS011;20984;43.508;1.504;2022-09-20T18:07:16;1.92;;;1.40;;
34765;SDS011;20984;43.508;1.504;2022-09-20T18:09:42;2.88;;;1.55;;
34765;SDS011;20984;43.508;1.504;2022-09-20T18:12:08;4.53;;;1.58;;
34765;SDS011;20984;43.508;1.504;2022-09-20T18:14:34;6.35;;;2.20;;
34765;SDS011;20984;43.508;1.504;2022-09-20T18:17:00;2.15;;;1.50;;
34765;SDS011;20984;43.508;1.504;2022-09-20T18:19:25;6.05;;;1.55;;
34765;SDS011;20984;43.508;1.504;2022-09-20T18:21:58;8.82;;;1.67;;
34765;SDS011;20984;43.508;1.504;2022-09-20T18:24:25;3.05;;;1.88;;
34765;SDS011;20984;43.508;1.504;2022-09-20T18:26:51;2.88;;;1.77;;
34765;SDS011;20984;43.508;1.504;2022-09-20T18:29:17;2.60;;;1.77;;
34765;SDS011;20984;43.508;1.504;2022-09-20T18:31:47;6.35;;;1.70;;
34765;SDS011;20984;43.508;1.504;2022-09-20T18:34:18;2.33;;;1.50;;
34765;SDS011;20984;43.508;1.504;2022-09-20T18:36:53;4.90;;;1.80;;
34765;SDS011;20984;43.508;1.504;2022-09-20T18:39:20;5.05;;;1.65;;
34765;SDS011;20984;43.508;1.504;2022-09-20T18:41:51;7.75;;;1.55;;
34765;SDS011;20984;43.508;1.504;2022-09-20T18:44:17;3.58;;;1.65;;
34765;SDS011;20984;43.508;1.504;2022-09-20T18:46:44;2.55;;;1.60;;
34765;SDS011;20984;43.508;1.504;2022-09-20T18:49:11;9.50;;;2.03;;
34765;SDS011;20984;43.508;1.504;2022-09-20T18:51:39;3.60;;;2.00;;
34765;SDS011;20984;43.508;1.504;2022-09-20T18:54:06;3.78;;;2.30;;
34765;SDS011;20984;43.508;1.504;2022-09-20T18:56:34;4.25;;;2.15;;
34765;SDS011;20984;43.508;1.504;2022-09-20T18:59:18;8.00;;;2.25;;
34765;SDS011;20984;43.508;1.504;2022-09-20T19:04:58;10.27;;;2.60;;
34765;SDS011;20984;43.508;1.504;2022-09-20T19:21:22;6.25;;;2.63;;
34765;SDS011;20984;43.508;1.504;2022-09-20T19:27:09;7.53;;;2.20;;
34765;SDS011;20984;43.508;1.504;2022-09-20T19:29:37;7.03;;;2.20;;
34765;SDS011;20984;43.508;1.504;2022-09-20T19:32:04;5.80;;;2.25;;
34765;SDS011;20984;43.508;1.504;2022-09-20T19:34:30;16.00;;;2.95;;
34765;SDS011;20984;43.508;1.504;2022-09-20T19:48:04;7.97;;;2.47;;
34765;SDS011;20984;43.508;1.504;2022-09-20T19:50:41;7.40;;;1.80;;
34765;SDS011;20984;43.508;1.504;2022-09-20T19:53:14;5.70;;;1.95;;
34765;SDS011;20984;43.508;1.504;2022-09-20T19:56:06;4.00;;;1.73;;
34765;SDS011;20984;43.508;1.504;2022-09-20T19:58:32;3.45;;;2.35;;
34765;SDS011;20984;43.508;1.504;2022-09-20T20:00:59;3.83;;;2.00;;
34765;SDS011;20984;43.508;1.504;2022-09-20T20:03:25;3.72;;;1.70;;
34765;SDS011;20984;43.508;1.504;2022-09-20T20:05:58;6.65;;;1.70;;
34765;SDS011;20984;43.508;1.504;2022-09-20T20:08:39;8.38;;;1.88;;
34765;SDS011;20984;43.508;1.504;2022-09-20T20:22:17;5.13;;;1.95;;
34765;SDS011;20984;43.508;1.504;2022-09-20T20:24:54;2.85;;;1.92;;
34765;SDS011;20984;43.508;1.504;2022-09-20T20:27:21;4.32;;;1.67;;
34765;SDS011;20984;43.508;1.504;2022-09-20T20:29:47;4.97;;;1.95;;
34765;SDS011;20984;43.508;1.504;2022-09-20T20:32:14;4.18;;;1.60;;
34765;SDS011;20984;43.508;1.504;2022-09-20T20:34:40;4.90;;;1.63;;
34765;SDS011;20984;43.508;1.504;2022-09-20T20:37:06;2.92;;;1.88;;
34765;SDS011;20984;43.508;1.504;2022-09-20T20:39:32;4.30;;;2.20;;
34765;SDS011;20984;43.508;1.504;2022-09-20T20:42:01;7.30;;;2.10;;
34765;SDS011;20984;43.508;1.504;2022-09-20T20:44:31;6.45;;;1.80;;
34765;SDS011;20984;43.508;1.504;2022-09-20T20:47:01;4.32;;;1.58;;
34765;SDS011;20984;43.508;1.504;2022-09-20T20:49:28;4.00;;;1.75;;
34765;SDS011;20984;43.508;1.504;2022-09-20T20:51:54;2.83;;;1.65;;
34765;SDS011;20984;43.508;1.504;2022-09-20T20:54:23;4.80;;;1.80;;
34765;SDS011;20984;43.508;1.504;2022-09-20T20:56:50;3.55;;;1.70;;
34765;SDS011;20984;43.508;1.504;2022-09-20T20:59:15;4.22;;;2.00;;
34765;SDS011;20984;43.508;1.504;2022-09-20T21:01:42;2.78;;;1.55;;
34765;SDS011;20984;43.508;1.504;2022-09-20T21:04:11;3.53;;;1.95;;
34765;SDS011;20984;43.508;1.504;2022-09-20T21:06:39;3.35;;;1.80;;
34765;SDS011;20984;43.508;1.504;2022-09-20T21:09:06;4.15;;;1.73;;
34765;SDS011;20984;43.508;1.504;2022-09-20T21:11:34;4.88;;;2.00;;
34765;SDS011;20984;43.508;1.504;2022-09-20T21:14:02;3.90;;;1.70;;
34765;SDS011;20984;43.508;1.504;2022-09-20T21:16:32;5.70;;;1.83;;
34765;SDS011;20984;43.508;1.504;2022-09-20T21:19:00;2.85;;;1.77;;
34765;SDS011;20984;43.508;1.504;2022-09-20T21:21:27;4.13;;;2.00;;
34765;SDS011;20984;43.508;1.504;2022-09-20T21:23:56;6.07;;;1.90;;
34765;SDS011;20984;43.508;1.504;2022-09-20T21:26:26;4.97;;;2.30;;